KBAZ

New Braunfels Regional Airport

New Braunfels, Texas, USA
METAR KBAZ 150651Z AUTO 33012KT 10SM CLR 11/M06 A3016 RMK AO2 SLP210 T01061056
Observed Flight Rules
Dec-15 @ 06:51 UTC (an hour ago) Visual Flight Rules
Wind Visibility Clouds
330° at 12 knots 10 miles
  • Clear skies
Temperatures Readings
Current 11°C / 52°F
Dewpoint -6°C / 21°F
Humidity 30%
Altimeter 30.16" Hg
Pressure 1021 hPa
Elevation 195
METAR KBAZ 150651Z AUTO 33012KT 10SM CLR 11/M06 A3016 RMK AO2 SLP210 T01061056
Observed Flight Rules
Dec-15 @ 06:51 UTC
(an hour ago)
VFR
Wind Visibility
330° at 12 knots 10 miles
Clouds
  • Clear skies
Temperature Dewpoint
11°C / 52°F -6°C / 21°F
Humidity Altimeter Pressure
30% 30.16" Hg 1021 hPa